Latest Weather Observations for Roseworthy

IDS60901

Issued at 11:21 pm CST Saturday 13 July 2024 (issued every 10 minutes, with the page automatically refreshed every 10 minutes)

About weather observations | Map of Adelaide area stations | Latest observations for Adelaide area | Other Formats
Station Details ID: 023122 Name: ROSEWORTHY AWS Lat: -34.51 Lon: 138.68 Height: 65.0 m
Data from the previous 72 hours. | See also: Recent months at Roseworthy
Date/Time
CST
Temp
°C
App
Temp
°C
Dew
Point
°C
Rel
Hum
%
Delta-T
°C
Wind Press
QNH
hPa
Press
MSL
hPa
Rain since
9am
mm
Dir  Spd
km/h
Gust
km/h
Spd
kts
Gust
kts
13/11:00pm 9.0 6.2 8.6 97 0.2 N 13 15 7 8 1019.7 1019.8 0.4
13/10:30pm 8.7 5.5 8.3 97 0.2 N 15 15 8 8 1019.7 1019.8 0.4
13/10:00pm 8.6 5.7 8.2 97 0.2 N 13 15 7 8 1019.7 1019.8 0.4
13/09:30pm 8.2 5.6 7.8 97 0.2 N 11 13 6 7 1019.7 1019.8 0.4
13/09:00pm 8.7 6.9 8.1 96 0.3 N 7 9 4 5 1019.8 1019.9 0.4
13/08:30pm 9.5 7.9 8.9 96 0.3 N 7 7 4 4 1019.8 1019.9 0.4
13/08:00pm 9.8 9.6 9.0 95 0.4 CALM 0 0 0 0 1019.5 1019.6 0.4
13/07:30pm 10.7 10.7 9.8 94 0.5 CALM 0 0 0 0 1019.3 1019.4 0.4
13/07:00pm 11.1 11.2 10.2 94 0.5 CALM 0 6 0 3 1019.4 1019.5 0.4
13/06:30pm 11.2 9.9 10.1 93 0.6 S 7 9 4 5 1019.3 1019.4 0.4
13/06:00pm 11.5 10.3 10.2 92 0.7 SSW 7 11 4 6 1019.0 1019.1 0.4
13/05:30pm 11.7 9.3 9.9 89 0.9 S 13 17 7 9 1018.7 1018.8 0.4
13/05:00pm 12.1 10.1 10.0 87 1.1 SSW 11 15 6 8 1018.6 1018.7 0.4
13/04:30pm 12.3 10.0 10.5 89 0.9 SW 13 17 7 9 1018.5 1018.6 0.4
13/04:00pm 14.5 11.1 9.3 71 2.7 W 17 22 9 12 1018.6 1018.7 0.2
13/03:30pm 13.9 10.4 8.7 71 2.6 W 17 20 9 11 1018.6 1018.7 0.2
13/03:00pm 14.8 11.3 8.7 67 3.1 W 17 20 9 11 1018.5 1018.6 0.2
13/02:30pm 13.9 9.5 9.1 73 2.4 WNW 22 26 12 14 1018.4 1018.5 0.2
13/02:00pm 14.1 9.6 9.9 76 2.2 WNW 24 30 13 16 1018.5 1018.6 0.2
13/01:30pm 13.9 10.0 9.5 75 2.3 W 20 26 11 14 1018.7 1018.8 0.2
13/01:00pm 13.9 11.5 9.9 77 2.1 WSW 13 22 7 12 1019.0 1019.1 0.2
13/12:30pm 14.8 11.5 9.4 70 2.8 WNW 17 24 9 13 1019.4 1019.5 0.0
13/12:00pm 14.4 11.2 10.0 75 2.3 WNW 17 20 9 11 1019.9 1020.0 0.0
13/11:30am 13.5 10.5 10.5 82 1.6 WNW 17 20 9 11 1020.4 1020.5 0.0
13/11:00am 13.1 10.5 10.8 86 1.2 WNW 15 19 8 10 1020.8 1020.9 0.0
13/10:30am 12.2 9.5 10.4 89 0.9 WNW 15 19 8 10 1021.0 1021.1 0.0
13/10:00am 11.6 9.8 11.0 96 0.3 NNW 11 15 6 8 1021.0 1021.1 0.0
13/09:30am 11.2 9.4 10.9 98 0.2 NNW 11 13 6 7 1021.0 1021.1 0.0
13/09:00am 10.5 8.1 10.2 98 0.2 NNW 13 17 7 9 1020.8 1020.9 0.4
13/08:30am 9.7 7.1 9.4 98 0.1 N 13 15 7 8 1020.4 1020.5 0.4
13/08:00am 9.2 6.9 8.9 98 0.1 N 11 15 6 8 1020.2 1020.3 0.4
13/07:30am 8.9 6.1 8.6 98 0.1 N 13 15 7 8 1019.8 1019.9 0.4
13/07:00am 9.2 6.9 8.9 98 0.1 N 11 13 6 7 1019.8 1019.9 0.4
13/06:30am 9.0 6.2 8.7 98 0.1 N 13 15 7 8 1019.6 1019.7 0.4
13/06:00am 9.5 6.9 9.2 98 0.1 NNW 13 15 7 8 1019.2 1019.3 0.4
13/05:30am 9.3 6.6 9.0 98 0.1 NNW 13 15 7 8 1019.1 1019.2 0.4
13/05:00am 9.4 7.1 9.1 98 0.1 NNW 11 13 6 7 1018.8 1018.9 0.4
13/04:30am 9.7 6.7 9.4 98 0.1 NNW 15 20 8 11 1018.9 1019.0 0.2
13/04:00am 9.6 7.4 9.3 98 0.1 NNW 11 15 6 8 1018.6 1018.7 0.2
13/03:30am 8.7 5.1 8.3 97 0.2 NNW 17 19 9 10 1018.7 1018.8 0.2
13/03:00am 8.9 6.1 8.5 97 0.2 NNW 13 15 7 8 1018.7 1018.8 0.2
13/02:30am 10.0 8.8 9.5 97 0.2 WNW 6 11 3 6 1018.9 1019.0 0.2
13/02:00am 9.8 7.2 9.3 97 0.2 WNW 13 15 7 8 1019.1 1019.2 0.0
13/01:30am 9.2 6.4 8.7 97 0.2 NNW 13 17 7 9 1018.9 1019.0 0.0
13/01:00am 8.6 5.0 8.2 97 0.2 NNW 17 20 9 11 1018.8 1018.9 0.0
13/12:30am 7.9 4.9 7.5 97 0.2 N 13 17 7 9 1018.9 1019.0 0.0
13/12:00am 8.0 4.6 7.6 97 0.2 NNW 15 17 8 9 1019.0 1019.1 0.0
 
Date/Time
CST
Temp
°C
App
Temp
°C
Dew
Point
°C
Rel
Hum
%
Delta-T
°C
Wind Press
QNH
hPa
Press
MSL
hPa
Rain since
9am
mm
Dir  Spd
km/h
Gust
km/h
Spd
kts
Gust
kts
12/11:30pm 8.5 5.2 7.9 96 0.3 NNW 15 19 8 10 1019.1 1019.2 0.0
12/11:00pm 8.9 5.7 8.3 96 0.3 NNW 15 17 8 9 1019.5 1019.6 0.0
12/10:30pm 8.8 5.9 8.2 96 0.3 NNW 13 15 7 8 1019.3 1019.4 0.0
12/10:00pm 8.4 5.4 7.6 95 0.4 N 13 13 7 7 1019.2 1019.3 0.0
12/09:30pm 9.1 6.2 8.3 95 0.4 NNW 13 15 7 8 1019.1 1019.2 0.0
12/09:00pm 8.9 6.4 8.0 94 0.4 NNW 11 13 6 7 1018.9 1019.0 0.0
12/08:30pm 9.6 6.8 8.5 93 0.5 N 13 15 7 8 1018.6 1018.7 0.0
12/08:00pm 9.6 6.5 8.7 94 0.4 NNW 15 17 8 9 1018.5 1018.6 0.0
12/07:30pm 9.6 6.8 8.4 92 0.6 NNW 13 13 7 7 1018.2 1018.3 0.0
12/07:00pm 10.3 8.1 9.2 93 0.5 NNW 11 11 6 6 1018.1 1018.2 0.0
12/06:30pm 10.0 7.9 8.3 89 0.8 NW 9 11 5 6 1017.9 1018.0 0.0
12/06:00pm 11.5 8.9 9.2 86 1.2 WNW 13 15 7 8 1017.6 1017.7 0.0
12/05:30pm 12.7 10.2 9.7 82 1.5 W 13 17 7 9 1017.5 1017.6 0.0
12/05:00pm 13.7 10.4 9.4 75 2.2 W 17 20 9 11 1017.2 1017.2 0.0
12/04:30pm 14.9 10.3 9.5 70 2.8 W 24 28 13 15 1017.3 1017.3 0.0
12/04:00pm 15.3 10.4 9.9 70 2.8 W 26 32 14 17 1017.2 1017.2 0.0
12/03:30pm 15.0 10.8 9.8 71 2.7 W 22 28 12 15 1017.2 1017.2 0.0
12/03:00pm 14.7 9.5 8.9 68 3.0 W 26 32 14 17 1017.1 1017.1 0.0
12/02:30pm 16.2 11.0 10.3 68 3.1 WNW 28 32 15 17 1017.0 1017.0 0.0
12/02:00pm 15.5 10.3 9.0 65 3.3 WNW 26 32 14 17 1016.9 1016.9 0.0
12/01:30pm 14.9 10.7 9.7 71 2.7 W 22 32 12 17 1016.9 1016.9 0.0
12/01:00pm 14.7 9.8 9.9 73 2.5 W 26 32 14 17 1017.3 1017.3 0.0
12/12:30pm 14.3 10.6 10.3 77 2.1 WNW 20 28 11 15 1017.7 1017.8 0.0
12/12:00pm 14.0 10.2 11.2 83 1.5 NW 22 26 12 14 1018.3 1018.4 0.0
12/11:30am 13.0 9.1 10.9 87 1.1 NW 22 28 12 15 1018.6 1018.7 0.0
12/11:00am 11.8 8.0 11.0 95 0.4 NW 22 26 12 14 1019.0 1019.1 0.0
12/10:30am 11.1 7.1 10.6 97 0.3 NW 22 28 12 15 1018.9 1019.0 0.0
12/10:00am 10.6 6.9 10.1 97 0.3 NNW 20 24 11 13 1018.7 1018.8 0.0
12/09:30am 10.1 6.2 9.6 97 0.3 NNW 20 24 11 13 1018.4 1018.5 0.0
12/09:00am 10.0 6.7 9.4 96 0.3 NNW 17 22 9 12 1018.0 1018.1 1.0
12/08:30am 9.1 6.3 8.5 96 0.3 N 13 17 7 9 1017.7 1017.8 1.0
12/08:00am 8.3 4.9 7.7 96 0.3 NNW 15 17 8 9 1017.3 1017.3 1.0
12/07:30am 8.2 4.8 7.6 96 0.3 N 15 17 8 9 1017.1 1017.1 1.0
12/07:00am 8.4 6.2 7.8 96 0.3 N 9 13 5 7 1017.1 1017.1 1.0
12/06:30am 7.9 6.1 7.3 96 0.3 N 6 11 3 6 1017.0 1017.0 0.8
12/06:00am 7.7 4.2 7.1 96 0.3 N 15 17 8 9 1016.8 1016.8 0.8
12/05:30am 8.0 4.9 7.4 96 0.3 NNW 13 15 7 8 1016.7 1016.7 0.8
12/05:00am 8.4 5.1 8.0 97 0.2 N 15 19 8 10 1016.4 1016.4 0.8
12/04:30am 8.3 5.0 7.9 97 0.2 N 15 17 8 9 1016.5 1016.5 0.8
12/04:00am 8.2 4.8 7.8 97 0.2 N 15 17 8 9 1016.3 1016.3 0.6
12/03:30am 8.1 4.7 7.8 98 0.1 N 15 19 8 10 1016.3 1016.3 0.6
12/03:00am 7.7 4.2 7.4 98 0.1 N 15 17 8 9 1016.2 1016.2 0.6
12/02:30am 7.5 4.4 7.2 98 0.1 N 13 15 7 8 1016.3 1016.3 0.6
12/02:00am 7.8 4.0 7.5 98 0.1 N 17 19 9 10 1016.3 1016.3 0.6
12/01:30am 7.7 3.8 7.3 97 0.2 N 17 17 9 9 1016.4 1016.4 0.6
12/01:00am 7.5 4.0 7.1 97 0.2 N 15 17 8 9 1016.3 1016.3 0.6
12/12:30am 7.5 4.0 7.1 97 0.2 N 15 15 8 8 1016.3 1016.3 0.6
12/12:00am 8.0 4.6 7.6 97 0.2 N 15 17 8 9 1016.4 1016.4 0.6
 
Date/Time
CST
Temp
°C
App
Temp
°C
Dew
Point
°C
Rel
Hum
%
Delta-T
°C
Wind Press
QNH
hPa
Press
MSL
hPa
Rain since
9am
mm
Dir  Spd
km/h
Gust
km/h
Spd
kts
Gust
kts
11/11:30pm 8.0 4.6 7.6 97 0.2 N 15 15 8 8 1016.3 1016.3 0.6
11/11:00pm 7.0 4.1 6.4 96 0.3 N 11 13 6 7 1016.3 1016.3 0.6
11/10:30pm 7.7 5.3 7.1 96 0.3 N 9 11 5 6 1016.2 1016.2 0.6
11/10:00pm 9.2 6.4 8.7 97 0.2 N 13 13 7 7 1016.4 1016.4 0.6
11/09:30pm 9.6 7.3 9.1 97 0.2 N 11 13 6 7 1016.5 1016.5 0.6
11/09:00pm 9.4 6.7 8.8 96 0.3 N 13 15 7 8 1016.3 1016.3 0.6
11/08:30pm 9.3 7.7 8.7 96 0.3 N 7 7 4 4 1016.1 1016.1 0.6
11/08:00pm 9.5 7.5 8.7 95 0.4 N 9 9 5 5 1015.8 1015.8 0.6
11/07:30pm 10.2 8.4 9.4 95 0.4 N 9 9 5 5 1015.6 1015.6 0.6
11/07:00pm 10.3 8.9 9.4 94 0.5 NW 7 9 4 5 1015.3 1015.3 0.6
11/06:30pm 10.6 8.9 9.7 94 0.5 NW 9 9 5 5 1014.8 1014.8 0.6
11/06:00pm 9.8 9.4 8.1 89 0.8 CALM 0 0 0 0 1014.4 1014.4 0.6
11/05:30pm 11.8 10.4 9.4 85 1.2 SW 7 9 4 5 1014.0 1014.0 0.6
11/05:00pm 13.1 10.7 9.9 81 1.6 SW 13 17 7 9 1013.5 1013.5 0.6
11/04:30pm 13.8 10.6 10.0 78 2.0 WSW 17 22 9 12 1012.9 1013.0 0.6
11/04:00pm 13.9 10.6 10.9 82 1.6 WSW 19 24 10 13 1012.6 1012.7 0.6
11/03:30pm 13.5 10.0 10.9 84 1.4 WSW 20 28 11 15 1012.3 1012.4 0.6
11/03:00pm 13.3 10.8 12.4 94 0.5 WNW 17 20 9 11 1012.3 1012.4 0.6
11/02:30pm 12.5 8.4 11.6 94 0.5 WNW 24 32 13 17 1012.2 1012.3 0.4
11/02:00pm 12.8 8.0 11.7 93 0.6 NW 28 33 15 18 1012.0 1012.1 0.2
11/01:30pm 13.6 8.2 12.2 91 0.8 NW 32 39 17 21 1011.8 1011.9 0.2
11/01:00pm 13.0 7.9 11.9 93 0.6 NW 30 37 16 20 1012.1 1012.2 0.2
11/12:30pm 12.3 6.6 11.2 93 0.6 NNW 32 39 17 21 1012.5 1012.6 0.2
11/12:00pm 12.1 6.1 10.8 92 0.7 NNW 33 41 18 22 1012.8 1012.9 0.2
11/11:30am 11.8 4.6 10.5 92 0.7 NNW 39 50 21 27 1013.0 1013.1 0.0
11/11:00am 11.9 3.9 10.3 90 0.8 NNW 43 54 23 29 1013.2 1013.3 0.0
11/10:30am 11.9 4.2 10.0 88 1.0 NNW 41 54 22 29 1013.2 1013.3 0.0
11/10:00am 12.3 3.6 9.9 85 1.2 NNW 46 59 25 32 1012.8 1012.9 0.0
11/09:30am 11.9 3.2 9.8 87 1.1 NNW 46 59 25 32 1012.5 1012.6 0.0
11/09:00am 11.8 3.5 9.4 85 1.2 NNW 43 57 23 31 1012.6 1012.7 1.8
11/08:39am 11.7 2.1 9.3 85 1.2 NNW 50 72 27 39 1012.5 1012.6 1.8
11/08:30am 11.5 2.2 9.2 86 1.2 NNW 48 65 26 35 1012.5 1012.6 1.8
11/08:00am 11.4 2.5 9.3 87 1.1 NNW 46 65 25 35 1012.4 1012.5 1.8
11/07:55am 11.4 3.0 9.5 88 1.0 NNW 44 65 24 35 1012.4 1012.5 1.8
11/07:30am 11.4 3.1 9.3 87 1.1 NNW 43 57 23 31 1012.2 1012.3 1.8
11/07:00am 11.5 3.0 8.7 83 1.4 NNW 43 61 23 33 1012.0 1012.1 1.4
11/06:57am 11.9 4.2 8.7 81 1.6 NNW 39 61 21 33 1011.9 1012.0 1.0
11/06:30am 12.3 4.1 8.0 75 2.1 N 41 52 22 28 1011.1 1011.2 0.6
11/06:10am 12.6 4.3 7.7 72 2.4 N 41 61 22 33 1010.8 1010.9 0.6
11/06:00am 12.2 4.4 8.1 76 2.0 N 39 52 21 28 1010.8 1010.9 0.6
11/05:30am 12.6 3.9 7.9 73 2.3 NNW 43 54 23 29 1011.1 1011.2 0.2
11/05:00am 13.3 4.5 7.3 67 2.9 N 43 56 23 30 1011.0 1011.1 0.2
11/04:30am 12.9 5.0 7.8 71 2.5 N 39 54 21 29 1011.7 1011.8 0.2
11/04:00am 12.8 5.7 7.9 72 2.4 N 35 44 19 24 1012.4 1012.5 0.2
11/03:30am 12.4 7.1 8.3 76 2.0 N 26 35 14 19 1013.0 1013.1 0.2
11/03:00am 11.7 7.6 8.6 81 1.5 NNE 20 26 11 14 1013.3 1013.4 0.2
11/02:30am 11.9 7.4 8.4 79 1.7 N 22 26 12 14 1014.2 1014.2 0.2
11/02:00am 11.8 8.2 8.5 80 1.6 N 17 24 9 13 1014.7 1014.7 0.2
11/01:30am 12.6 8.6 8.1 74 2.2 NNW 19 28 10 15 1015.0 1015.0 0.0
11/01:00am 13.8 8.5 6.9 63 3.4 NNW 24 32 13 17 1015.0 1015.0 0.0
11/12:30am 13.1 9.8 6.2 63 3.3 NNE 13 19 7 10 1013.8 1013.8 0.0
11/12:00am 13.4 7.2 6.3 62 3.4 N 28 35 15 19 1013.6 1013.6 0.0
 
Date/Time
CST
Temp
°C
App
Temp
°C
Dew
Point
°C
Rel
Hum
%
Delta-T
°C
Wind Press
QNH
hPa
Press
MSL
hPa
Rain since
9am
mm
Dir  Spd
km/h
Gust
km/h
Spd
kts
Gust
kts
10/11:30pm 13.3 7.5 6.2 62 3.4 N 26 37 14 20 1014.3 1014.3 0.0

Latest Capital City Observations: Canberra | Sydney | Melbourne | Brisbane | Adelaide | Perth | Hobart | Darwin

Other formats

Comma delimited format used in spreadsheet applications
http://www.bom.gov.au/fwo/IDS60901/IDS60901.95671.axf

JavaScript Object Notation format (JSON) in row-major order
http://www.bom.gov.au/fwo/IDS60901/IDS60901.95671.json

Data quality

Most of these data are generated automatically and are frequently updated. Quality checks on data are not normally performed. It is possible for incorrect values to appear. Refer to information at About Latest Weather Observations and please check the disclaimer before using these data.